sensor_id;sensor_type;location;lat;lon;timestamp;P1;durP1;ratioP1;P2;durP2;ratioP2
33826;SDS011;20128;45.582;5.298;2024-03-06T00:00:05;5.05;;;3.05;;
33826;SDS011;20128;45.582;5.298;2024-03-06T00:02:34;4.90;;;2.47;;
33826;SDS011;20128;45.582;5.298;2024-03-06T00:05:01;3.72;;;2.40;;
33826;SDS011;20128;45.582;5.298;2024-03-06T00:07:26;5.40;;;2.03;;
33826;SDS011;20128;45.582;5.298;2024-03-06T00:09:52;4.38;;;2.17;;
33826;SDS011;20128;45.582;5.298;2024-03-06T00:12:18;4.05;;;2.20;;
33826;SDS011;20128;45.582;5.298;2024-03-06T00:14:44;5.82;;;2.70;;
33826;SDS011;20128;45.582;5.298;2024-03-06T00:17:09;3.65;;;2.28;;
33826;SDS011;20128;45.582;5.298;2024-03-06T00:19:35;5.00;;;2.30;;
33826;SDS011;20128;45.582;5.298;2024-03-06T00:22:01;3.85;;;2.20;;
33826;SDS011;20128;45.582;5.298;2024-03-06T00:24:27;5.10;;;2.33;;
33826;SDS011;20128;45.582;5.298;2024-03-06T00:26:53;3.70;;;2.47;;
33826;SDS011;20128;45.582;5.298;2024-03-06T00:29:18;4.43;;;2.22;;
33826;SDS011;20128;45.582;5.298;2024-03-06T00:31:44;3.97;;;2.20;;
33826;SDS011;20128;45.582;5.298;2024-03-06T00:34:11;4.38;;;2.00;;
33826;SDS011;20128;45.582;5.298;2024-03-06T00:36:39;5.00;;;2.22;;
33826;SDS011;20128;45.582;5.298;2024-03-06T00:39:05;4.75;;;2.22;;
33826;SDS011;20128;45.582;5.298;2024-03-06T00:41:30;5.22;;;2.30;;
33826;SDS011;20128;45.582;5.298;2024-03-06T00:43:56;5.22;;;2.50;;
33826;SDS011;20128;45.582;5.298;2024-03-06T00:46:22;3.63;;;2.47;;
33826;SDS011;20128;45.582;5.298;2024-03-06T00:48:48;7.75;;;4.07;;
33826;SDS011;20128;45.582;5.298;2024-03-06T00:51:14;7.85;;;3.63;;
33826;SDS011;20128;45.582;5.298;2024-03-06T00:53:39;8.32;;;4.32;;
33826;SDS011;20128;45.582;5.298;2024-03-06T00:56:05;11.40;;;4.88;;
33826;SDS011;20128;45.582;5.298;2024-03-06T00:58:31;9.55;;;4.53;;
33826;SDS011;20128;45.582;5.298;2024-03-06T01:00:57;4.65;;;2.63;;
33826;SDS011;20128;45.582;5.298;2024-03-06T01:03:23;3.30;;;2.10;;
33826;SDS011;20128;45.582;5.298;2024-03-06T01:05:49;3.95;;;2.30;;
33826;SDS011;20128;45.582;5.298;2024-03-06T01:08:17;6.07;;;2.25;;
33826;SDS011;20128;45.582;5.298;2024-03-06T01:10:43;4.72;;;2.95;;
33826;SDS011;20128;45.582;5.298;2024-03-06T01:13:09;4.47;;;2.78;;
33826;SDS011;20128;45.582;5.298;2024-03-06T01:15:36;6.28;;;3.53;;
33826;SDS011;20128;45.582;5.298;2024-03-06T01:18:02;7.43;;;3.75;;
33826;SDS011;20128;45.582;5.298;2024-03-06T01:20:28;8.40;;;4.18;;
33826;SDS011;20128;45.582;5.298;2024-03-06T01:22:54;6.35;;;3.55;;
33826;SDS011;20128;45.582;5.298;2024-03-06T01:25:20;10.95;;;4.97;;
33826;SDS011;20128;45.582;5.298;2024-03-06T01:27:47;13.30;;;6.03;;
33826;SDS011;20128;45.582;5.298;2024-03-06T01:30:14;11.80;;;5.63;;
33826;SDS011;20128;45.582;5.298;2024-03-06T01:32:39;9.02;;;4.82;;
33826;SDS011;20128;45.582;5.298;2024-03-06T01:35:05;12.18;;;5.53;;
33826;SDS011;20128;45.582;5.298;2024-03-06T01:37:31;11.95;;;4.32;;
33826;SDS011;20128;45.582;5.298;2024-03-06T01:39:57;10.07;;;4.70;;
33826;SDS011;20128;45.582;5.298;2024-03-06T01:42:23;12.88;;;5.53;;
33826;SDS011;20128;45.582;5.298;2024-03-06T01:44:49;10.27;;;5.00;;
33826;SDS011;20128;45.582;5.298;2024-03-06T01:47:14;9.23;;;4.45;;
33826;SDS011;20128;45.582;5.298;2024-03-06T01:49:40;7.28;;;4.57;;
33826;SDS011;20128;45.582;5.298;2024-03-06T01:52:07;13.63;;;4.35;;
33826;SDS011;20128;45.582;5.298;2024-03-06T01:54:37;9.85;;;5.43;;
33826;SDS011;20128;45.582;5.298;2024-03-06T01:57:03;9.30;;;3.90;;
33826;SDS011;20128;45.582;5.298;2024-03-06T01:59:31;9.07;;;5.25;;
33826;SDS011;20128;45.582;5.298;2024-03-06T02:01:57;8.00;;;3.90;;
33826;SDS011;20128;45.582;5.298;2024-03-06T02:04:23;9.38;;;4.65;;
33826;SDS011;20128;45.582;5.298;2024-03-06T02:06:51;6.57;;;4.38;;
33826;SDS011;20128;45.582;5.298;2024-03-06T02:09:17;8.73;;;3.78;;
33826;SDS011;20128;45.582;5.298;2024-03-06T02:11:44;7.10;;;3.85;;
33826;SDS011;20128;45.582;5.298;2024-03-06T02:14:10;8.00;;;3.22;;
33826;SDS011;20128;45.582;5.298;2024-03-06T02:16:36;5.28;;;3.22;;
33826;SDS011;20128;45.582;5.298;2024-03-06T02:19:04;5.88;;;3.30;;
33826;SDS011;20128;45.582;5.298;2024-03-06T02:21:30;9.27;;;4.88;;
33826;SDS011;20128;45.582;5.298;2024-03-06T02:23:55;9.60;;;3.67;;
33826;SDS011;20128;45.582;5.298;2024-03-06T02:26:21;11.18;;;4.35;;
33826;SDS011;20128;45.582;5.298;2024-03-06T02:28:48;7.80;;;3.92;;
33826;SDS011;20128;45.582;5.298;2024-03-06T02:31:15;9.77;;;3.63;;
33826;SDS011;20128;45.582;5.298;2024-03-06T02:33:41;6.97;;;3.70;;
33826;SDS011;20128;45.582;5.298;2024-03-06T02:36:09;5.85;;;3.58;;
33826;SDS011;20128;45.582;5.298;2024-03-06T02:38:35;7.60;;;3.75;;
33826;SDS011;20128;45.582;5.298;2024-03-06T02:41:01;6.10;;;3.00;;
33826;SDS011;20128;45.582;5.298;2024-03-06T02:43:27;7.05;;;3.42;;
33826;SDS011;20128;45.582;5.298;2024-03-06T02:45:53;7.20;;;2.35;;
33826;SDS011;20128;45.582;5.298;2024-03-06T02:48:18;11.32;;;3.70;;
33826;SDS011;20128;45.582;5.298;2024-03-06T02:50:44;6.80;;;3.28;;
33826;SDS011;20128;45.582;5.298;2024-03-06T02:53:10;6.35;;;2.95;;
33826;SDS011;20128;45.582;5.298;2024-03-06T02:55:35;8.15;;;3.63;;
33826;SDS011;20128;45.582;5.298;2024-03-06T02:58:04;6.43;;;3.33;;
33826;SDS011;20128;45.582;5.298;2024-03-06T03:00:30;8.73;;;3.38;;
33826;SDS011;20128;45.582;5.298;2024-03-06T03:02:56;7.60;;;3.20;;
33826;SDS011;20128;45.582;5.298;2024-03-06T03:05:22;6.50;;;3.45;;
33826;SDS011;20128;45.582;5.298;2024-03-06T03:07:48;7.35;;;3.45;;
33826;SDS011;20128;45.582;5.298;2024-03-06T03:10:14;9.85;;;3.33;;
33826;SDS011;20128;45.582;5.298;2024-03-06T03:12:40;8.20;;;3.38;;
33826;SDS011;20128;45.582;5.298;2024-03-06T03:15:07;8.98;;;3.20;;
33826;SDS011;20128;45.582;5.298;2024-03-06T03:17:33;7.18;;;3.95;;
33826;SDS011;20128;45.582;5.298;2024-03-06T03:19:59;8.63;;;3.75;;
33826;SDS011;20128;45.582;5.298;2024-03-06T03:22:24;7.38;;;3.40;;
33826;SDS011;20128;45.582;5.298;2024-03-06T03:24:50;6.07;;;3.70;;
33826;SDS011;20128;45.582;5.298;2024-03-06T03:27:16;4.97;;;3.20;;
33826;SDS011;20128;45.582;5.298;2024-03-06T03:29:43;6.85;;;3.75;;
33826;SDS011;20128;45.582;5.298;2024-03-06T03:32:09;8.95;;;3.67;;
33826;SDS011;20128;45.582;5.298;2024-03-06T03:34:34;7.43;;;3.22;;
33826;SDS011;20128;45.582;5.298;2024-03-06T03:37:00;13.15;;;2.97;;
33826;SDS011;20128;45.582;5.298;2024-03-06T03:39:27;5.88;;;2.65;;
33826;SDS011;20128;45.582;5.298;2024-03-06T03:41:53;4.90;;;3.03;;
33826;SDS011;20128;45.582;5.298;2024-03-06T03:44:18;5.78;;;3.00;;
33826;SDS011;20128;45.582;5.298;2024-03-06T03:46:44;6.03;;;2.47;;
33826;SDS011;20128;45.582;5.298;2024-03-06T03:49:10;6.50;;;2.65;;
33826;SDS011;20128;45.582;5.298;2024-03-06T03:51:37;3.30;;;2.05;;
33826;SDS011;20128;45.582;5.298;2024-03-06T03:54:03;5.00;;;2.20;;
33826;SDS011;20128;45.582;5.298;2024-03-06T03:56:30;10.27;;;3.65;;
33826;SDS011;20128;45.582;5.298;2024-03-06T03:58:56;5.80;;;3.15;;
33826;SDS011;20128;45.582;5.298;2024-03-06T04:01:22;8.05;;;2.72;;
33826;SDS011;20128;45.582;5.298;2024-03-06T04:03:48;5.78;;;2.65;;
33826;SDS011;20128;45.582;5.298;2024-03-06T04:06:14;4.88;;;2.38;;
33826;SDS011;20128;45.582;5.298;2024-03-06T04:08:39;7.85;;;2.47;;
33826;SDS011;20128;45.582;5.298;2024-03-06T04:11:06;4.63;;;2.70;;
33826;SDS011;20128;45.582;5.298;2024-03-06T04:13:34;11.18;;;4.53;;
33826;SDS011;20128;45.582;5.298;2024-03-06T04:16:01;5.57;;;2.63;;
33826;SDS011;20128;45.582;5.298;2024-03-06T04:18:28;5.03;;;2.60;;
33826;SDS011;20128;45.582;5.298;2024-03-06T04:20:58;6.70;;;2.97;;
33826;SDS011;20128;45.582;5.298;2024-03-06T04:23:27;8.40;;;2.40;;
33826;SDS011;20128;45.582;5.298;2024-03-06T04:25:52;6.18;;;2.40;;
33826;SDS011;20128;45.582;5.298;2024-03-06T04:28:18;3.83;;;1.80;;
33826;SDS011;20128;45.582;5.298;2024-03-06T04:30:43;4.28;;;1.83;;
33826;SDS011;20128;45.582;5.298;2024-03-06T04:33:09;8.48;;;1.73;;
33826;SDS011;20128;45.582;5.298;2024-03-06T04:35:38;4.60;;;1.73;;
33826;SDS011;20128;45.582;5.298;2024-03-06T04:38:04;5.22;;;1.77;;
33826;SDS011;20128;45.582;5.298;2024-03-06T04:40:31;4.93;;;1.85;;
33826;SDS011;20128;45.582;5.298;2024-03-06T04:42:57;3.47;;;1.80;;
33826;SDS011;20128;45.582;5.298;2024-03-06T04:45:22;4.82;;;1.98;;
33826;SDS011;20128;45.582;5.298;2024-03-06T04:47:48;5.22;;;1.70;;
33826;SDS011;20128;45.582;5.298;2024-03-06T04:50:14;3.80;;;2.15;;
33826;SDS011;20128;45.582;5.298;2024-03-06T04:52:40;4.50;;;1.70;;
33826;SDS011;20128;45.582;5.298;2024-03-06T04:55:07;5.05;;;1.67;;
33826;SDS011;20128;45.582;5.298;2024-03-06T04:57:36;3.55;;;1.65;;
33826;SDS011;20128;45.582;5.298;2024-03-06T05:00:06;5.18;;;2.10;;
33826;SDS011;20128;45.582;5.298;2024-03-06T05:02:33;6.45;;;2.33;;
33826;SDS011;20128;45.582;5.298;2024-03-06T05:05:00;5.85;;;1.80;;
33826;SDS011;20128;45.582;5.298;2024-03-06T05:07:30;4.90;;;1.85;;
33826;SDS011;20128;45.582;5.298;2024-03-06T05:10:00;6.70;;;2.28;;
33826;SDS011;20128;45.582;5.298;2024-03-06T05:12:26;4.32;;;1.90;;
33826;SDS011;20128;45.582;5.298;2024-03-06T05:14:52;5.38;;;2.08;;
33826;SDS011;20128;45.582;5.298;2024-03-06T05:17:18;4.97;;;1.80;;
33826;SDS011;20128;45.582;5.298;2024-03-06T05:19:45;3.28;;;2.03;;
33826;SDS011;20128;45.582;5.298;2024-03-06T05:22:12;3.55;;;2.00;;
33826;SDS011;20128;45.582;5.298;2024-03-06T05:24:38;6.28;;;2.38;;
33826;SDS011;20128;45.582;5.298;2024-03-06T05:27:05;3.25;;;2.00;;
33826;SDS011;20128;45.582;5.298;2024-03-06T05:29:31;8.13;;;2.97;;
33826;SDS011;20128;45.582;5.298;2024-03-06T05:31:56;9.77;;;3.72;;
33826;SDS011;20128;45.582;5.298;2024-03-06T05:34:22;11.05;;;4.00;;
33826;SDS011;20128;45.582;5.298;2024-03-06T05:36:48;7.05;;;3.72;;
33826;SDS011;20128;45.582;5.298;2024-03-06T05:39:14;7.70;;;2.92;;
33826;SDS011;20128;45.582;5.298;2024-03-06T05:41:40;5.45;;;2.65;;
33826;SDS011;20128;45.582;5.298;2024-03-06T05:44:07;4.78;;;2.22;;
33826;SDS011;20128;45.582;5.298;2024-03-06T05:46:33;5.00;;;2.20;;
33826;SDS011;20128;45.582;5.298;2024-03-06T05:48:58;5.35;;;2.85;;
33826;SDS011;20128;45.582;5.298;2024-03-06T05:51:24;3.08;;;2.17;;
33826;SDS011;20128;45.582;5.298;2024-03-06T05:53:50;4.38;;;2.53;;
33826;SDS011;20128;45.582;5.298;2024-03-06T05:56:17;2.65;;;1.90;;
33826;SDS011;20128;45.582;5.298;2024-03-06T05:58:43;6.00;;;2.25;;
33826;SDS011;20128;45.582;5.298;2024-03-06T06:01:11;7.28;;;2.58;;
33826;SDS011;20128;45.582;5.298;2024-03-06T06:03:38;8.50;;;2.65;;
33826;SDS011;20128;45.582;5.298;2024-03-06T06:06:04;7.90;;;2.55;;
33826;SDS011;20128;45.582;5.298;2024-03-06T06:08:30;7.65;;;3.13;;
33826;SDS011;20128;45.582;5.298;2024-03-06T06:10:55;5.30;;;2.67;;
33826;SDS011;20128;45.582;5.298;2024-03-06T06:13:21;4.57;;;2.03;;
33826;SDS011;20128;45.582;5.298;2024-03-06T06:15:47;4.22;;;2.08;;
33826;SDS011;20128;45.582;5.298;2024-03-06T06:18:12;10.80;;;2.95;;
33826;SDS011;20128;45.582;5.298;2024-03-06T06:20:39;7.93;;;2.42;;
33826;SDS011;20128;45.582;5.298;2024-03-06T06:23:06;5.95;;;2.30;;
33826;SDS011;20128;45.582;5.298;2024-03-06T06:25:32;5.10;;;2.40;;
33826;SDS011;20128;45.582;5.298;2024-03-06T06:27:58;7.45;;;2.53;;
33826;SDS011;20128;45.582;5.298;2024-03-06T06:30:24;4.75;;;2.22;;
33826;SDS011;20128;45.582;5.298;2024-03-06T06:32:49;4.80;;;2.58;;
33826;SDS011;20128;45.582;5.298;2024-03-06T06:35:15;3.22;;;2.15;;
33826;SDS011;20128;45.582;5.298;2024-03-06T06:37:41;5.38;;;2.47;;
33826;SDS011;20128;45.582;5.298;2024-03-06T06:40:08;7.53;;;2.67;;
33826;SDS011;20128;45.582;5.298;2024-03-06T06:42:34;6.18;;;2.50;;
33826;SDS011;20128;45.582;5.298;2024-03-06T06:45:01;7.25;;;2.63;;
33826;SDS011;20128;45.582;5.298;2024-03-06T06:47:27;5.65;;;2.03;;
33826;SDS011;20128;45.582;5.298;2024-03-06T06:49:53;6.15;;;2.25;;
33826;SDS011;20128;45.582;5.298;2024-03-06T06:52:19;12.38;;;3.05;;
33826;SDS011;20128;45.582;5.298;2024-03-06T06:54:44;6.50;;;3.00;;
33826;SDS011;20128;45.582;5.298;2024-03-06T06:57:12;7.88;;;3.08;;
33826;SDS011;20128;45.582;5.298;2024-03-06T06:59:37;5.53;;;2.58;;
33826;SDS011;20128;45.582;5.298;2024-03-06T07:02:03;8.13;;;2.90;;
33826;SDS011;20128;45.582;5.298;2024-03-06T07:04:29;11.63;;;2.90;;
33826;SDS011;20128;45.582;5.298;2024-03-06T07:06:55;8.73;;;2.67;;
33826;SDS011;20128;45.582;5.298;2024-03-06T07:09:21;5.38;;;2.53;;
33826;SDS011;20128;45.582;5.298;2024-03-06T07:11:46;5.45;;;2.70;;
33826;SDS011;20128;45.582;5.298;2024-03-06T07:14:13;18.27;;;6.63;;
33826;SDS011;20128;45.582;5.298;2024-03-06T07:16:42;13.10;;;7.07;;
33826;SDS011;20128;45.582;5.298;2024-03-06T07:19:08;89.63;;;36.00;;
33826;SDS011;20128;45.582;5.298;2024-03-06T07:21:34;37.03;;;17.42;;
33826;SDS011;20128;45.582;5.298;2024-03-06T07:24:00;10.43;;;4.60;;
33826;SDS011;20128;45.582;5.298;2024-03-06T07:26:26;6.60;;;3.25;;
33826;SDS011;20128;45.582;5.298;2024-03-06T07:28:54;8.98;;;3.97;;
33826;SDS011;20128;45.582;5.298;2024-03-06T07:31:20;7.85;;;4.75;;
33826;SDS011;20128;45.582;5.298;2024-03-06T07:33:46;12.45;;;7.25;;
33826;SDS011;20128;45.582;5.298;2024-03-06T07:36:12;12.30;;;6.28;;
33826;SDS011;20128;45.582;5.298;2024-03-06T07:38:37;38.92;;;19.35;;
33826;SDS011;20128;45.582;5.298;2024-03-06T07:41:03;25.75;;;14.40;;
33826;SDS011;20128;45.582;5.298;2024-03-06T07:43:29;26.65;;;14.85;;
33826;SDS011;20128;45.582;5.298;2024-03-06T07:45:54;15.65;;;8.70;;
33826;SDS011;20128;45.582;5.298;2024-03-06T07:48:20;11.60;;;5.90;;
33826;SDS011;20128;45.582;5.298;2024-03-06T07:50:46;9.98;;;4.55;;
33826;SDS011;20128;45.582;5.298;2024-03-06T07:53:11;10.55;;;5.28;;
33826;SDS011;20128;45.582;5.298;2024-03-06T07:55:37;11.32;;;6.15;;
33826;SDS011;20128;45.582;5.298;2024-03-06T07:58:04;14.65;;;6.03;;
33826;SDS011;20128;45.582;5.298;2024-03-06T08:00:29;8.40;;;5.22;;
33826;SDS011;20128;45.582;5.298;2024-03-06T08:02:56;12.45;;;5.13;;
33826;SDS011;20128;45.582;5.298;2024-03-06T08:05:22;13.15;;;6.13;;
33826;SDS011;20128;45.582;5.298;2024-03-06T08:07:47;19.15;;;6.45;;
33826;SDS011;20128;45.582;5.298;2024-03-06T08:10:13;10.70;;;4.57;;
33826;SDS011;20128;45.582;5.298;2024-03-06T08:12:42;10.65;;;5.00;;
33826;SDS011;20128;45.582;5.298;2024-03-06T08:15:12;11.15;;;5.28;;
33826;SDS011;20128;45.582;5.298;2024-03-06T08:17:39;10.30;;;5.13;;
33826;SDS011;20128;45.582;5.298;2024-03-06T08:20:09;15.65;;;5.85;;
33826;SDS011;20128;45.582;5.298;2024-03-06T08:22:39;13.45;;;6.18;;
33826;SDS011;20128;45.582;5.298;2024-03-06T08:25:06;15.75;;;5.95;;
33826;SDS011;20128;45.582;5.298;2024-03-06T08:27:36;11.30;;;5.13;;
33826;SDS011;20128;45.582;5.298;2024-03-06T08:30:04;9.32;;;4.30;;
33826;SDS011;20128;45.582;5.298;2024-03-06T08:32:30;9.80;;;4.18;;
33826;SDS011;20128;45.582;5.298;2024-03-06T08:35:00;15.05;;;3.78;;
33826;SDS011;20128;45.582;5.298;2024-03-06T08:37:27;8.45;;;2.85;;
33826;SDS011;20128;45.582;5.298;2024-03-06T08:39:53;11.18;;;3.90;;
33826;SDS011;20128;45.582;5.298;2024-03-06T08:42:18;7.28;;;3.65;;
33826;SDS011;20128;45.582;5.298;2024-03-06T08:44:44;11.30;;;3.55;;
33826;SDS011;20128;45.582;5.298;2024-03-06T08:47:11;15.23;;;4.18;;
33826;SDS011;20128;45.582;5.298;2024-03-06T08:49:37;9.77;;;4.10;;
33826;SDS011;20128;45.582;5.298;2024-03-06T08:52:02;7.00;;;4.13;;
33826;SDS011;20128;45.582;5.298;2024-03-06T08:54:28;8.30;;;3.90;;
33826;SDS011;20128;45.582;5.298;2024-03-06T08:56:56;7.85;;;4.07;;
33826;SDS011;20128;45.582;5.298;2024-03-06T08:59:23;10.27;;;4.72;;
33826;SDS011;20128;45.582;5.298;2024-03-06T09:01:51;12.02;;;4.60;;
33826;SDS011;20128;45.582;5.298;2024-03-06T09:04:19;9.18;;;4.32;;
33826;SDS011;20128;45.582;5.298;2024-03-06T09:06:45;9.13;;;4.18;;
33826;SDS011;20128;45.582;5.298;2024-03-06T09:09:10;9.35;;;3.90;;
33826;SDS011;20128;45.582;5.298;2024-03-06T09:11:39;7.15;;;3.58;;
33826;SDS011;20128;45.582;5.298;2024-03-06T09:14:08;8.77;;;3.00;;
33826;SDS011;20128;45.582;5.298;2024-03-06T09:16:35;7.13;;;2.63;;
33826;SDS011;20128;45.582;5.298;2024-03-06T09:19:01;11.27;;;2.35;;
33826;SDS011;20128;45.582;5.298;2024-03-06T09:21:27;8.30;;;2.35;;
33826;SDS011;20128;45.582;5.298;2024-03-06T09:23:54;4.38;;;2.05;;
33826;SDS011;20128;45.582;5.298;2024-03-06T09:26:20;5.70;;;2.00;;
33826;SDS011;20128;45.582;5.298;2024-03-06T09:28:46;11.80;;;2.70;;
33826;SDS011;20128;45.582;5.298;2024-03-06T09:31:11;4.28;;;2.08;;
33826;SDS011;20128;45.582;5.298;2024-03-06T09:33:39;6.85;;;2.20;;
33826;SDS011;20128;45.582;5.298;2024-03-06T09:36:05;5.97;;;2.63;;
33826;SDS011;20128;45.582;5.298;2024-03-06T09:38:31;6.95;;;2.83;;
33826;SDS011;20128;45.582;5.298;2024-03-06T09:40:57;15.40;;;2.83;;
33826;SDS011;20128;45.582;5.298;2024-03-06T09:43:22;7.85;;;2.58;;
33826;SDS011;20128;45.582;5.298;2024-03-06T09:45:49;8.48;;;2.63;;
33826;SDS011;20128;45.582;5.298;2024-03-06T09:48:16;4.25;;;2.38;;
33826;SDS011;20128;45.582;5.298;2024-03-06T09:50:45;6.70;;;2.78;;
33826;SDS011;20128;45.582;5.298;2024-03-06T09:53:15;5.63;;;2.90;;
33826;SDS011;20128;45.582;5.298;2024-03-06T09:55:42;6.50;;;1.85;;
33826;SDS011;20128;45.582;5.298;2024-03-06T09:58:08;10.75;;;1.88;;
33826;SDS011;20128;45.582;5.298;2024-03-06T10:00:36;5.30;;;1.70;;
33826;SDS011;20128;45.582;5.298;2024-03-06T10:03:02;10.80;;;1.85;;
33826;SDS011;20128;45.582;5.298;2024-03-06T10:05:33;9.63;;;3.50;;
33826;SDS011;20128;45.582;5.298;2024-03-06T10:08:02;5.88;;;1.63;;
33826;SDS011;20128;45.582;5.298;2024-03-06T10:10:29;5.00;;;1.80;;
33826;SDS011;20128;45.582;5.298;2024-03-06T10:12:55;7.60;;;1.73;;
33826;SDS011;20128;45.582;5.298;2024-03-06T10:15:25;4.90;;;1.40;;
33826;SDS011;20128;45.582;5.298;2024-03-06T10:18:09;9.15;;;2.00;;
33826;SDS011;20128;45.582;5.298;2024-03-06T10:20:38;10.02;;;2.25;;
33826;SDS011;20128;45.582;5.298;2024-03-06T10:23:03;6.93;;;1.80;;
33826;SDS011;20128;45.582;5.298;2024-03-06T10:25:29;6.63;;;1.58;;
33826;SDS011;20128;45.582;5.298;2024-03-06T10:28:09;6.90;;;1.65;;
33826;SDS011;20128;45.582;5.298;2024-03-06T10:30:36;4.80;;;1.83;;
33826;SDS011;20128;45.582;5.298;2024-03-06T10:33:06;10.32;;;1.52;;
33826;SDS011;20128;45.582;5.298;2024-03-06T10:35:33;8.70;;;1.75;;
33826;SDS011;20128;45.582;5.298;2024-03-06T10:38:00;6.65;;;2.33;;
33826;SDS011;20128;45.582;5.298;2024-03-06T10:40:33;5.47;;;1.67;;
33826;SDS011;20128;45.582;5.298;2024-03-06T10:43:00;8.07;;;1.80;;
33826;SDS011;20128;45.582;5.298;2024-03-06T10:45:32;12.63;;;4.30;;
33826;SDS011;20128;45.582;5.298;2024-03-06T10:50:41;15.35;;;2.50;;
33826;SDS011;20128;45.582;5.298;2024-03-06T10:53:09;6.18;;;1.58;;
33826;SDS011;20128;45.582;5.298;2024-03-06T10:55:36;7.00;;;1.90;;
33826;SDS011;20128;45.582;5.298;2024-03-06T10:58:05;3.97;;;1.25;;
33826;SDS011;20128;45.582;5.298;2024-03-06T11:00:43;6.18;;;1.70;;
33826;SDS011;20128;45.582;5.298;2024-03-06T11:03:15;10.85;;;1.77;;
33826;SDS011;20128;45.582;5.298;2024-03-06T11:05:42;16.30;;;2.67;;
33826;SDS011;20128;45.582;5.298;2024-03-06T11:08:09;4.57;;;1.60;;
33826;SDS011;20128;45.582;5.298;2024-03-06T11:10:37;12.65;;;1.80;;
33826;SDS011;20128;45.582;5.298;2024-03-06T11:15:45;5.45;;;1.20;;
33826;SDS011;20128;45.582;5.298;2024-03-06T11:23:34;6.57;;;1.15;;
33826;SDS011;20128;45.582;5.298;2024-03-06T11:26:03;4.97;;;1.45;;
33826;SDS011;20128;45.582;5.298;2024-03-06T11:28:33;10.25;;;2.22;;
33826;SDS011;20128;45.582;5.298;2024-03-06T11:38:56;9.02;;;1.77;;
33826;SDS011;20128;45.582;5.298;2024-03-06T11:41:28;6.75;;;1.13;;
33826;SDS011;20128;45.582;5.298;2024-03-06T11:44:20;8.38;;;1.40;;
33826;SDS011;20128;45.582;5.298;2024-03-06T11:46:49;7.00;;;0.95;;
33826;SDS011;20128;45.582;5.298;2024-03-06T11:49:23;6.97;;;1.20;;
33826;SDS011;20128;45.582;5.298;2024-03-06T11:51:54;8.35;;;1.48;;
33826;SDS011;20128;45.582;5.298;2024-03-06T11:54:21;9.82;;;2.75;;
33826;SDS011;20128;45.582;5.298;2024-03-06T11:56:55;12.57;;;2.65;;
33826;SDS011;20128;45.582;5.298;2024-03-06T11:59:25;4.65;;;1.27;;
33826;SDS011;20128;45.582;5.298;2024-03-06T12:01:53;7.95;;;1.88;;
33826;SDS011;20128;45.582;5.298;2024-03-06T12:04:20;5.45;;;1.35;;
33826;SDS011;20128;45.582;5.298;2024-03-06T12:06:46;5.75;;;1.70;;
33826;SDS011;20128;45.582;5.298;2024-03-06T12:09:13;6.40;;;1.42;;
33826;SDS011;20128;45.582;5.298;2024-03-06T12:11:38;9.80;;;1.10;;
33826;SDS011;20128;45.582;5.298;2024-03-06T12:14:04;5.72;;;1.60;;
33826;SDS011;20128;45.582;5.298;2024-03-06T12:16:30;5.03;;;1.08;;
33826;SDS011;20128;45.582;5.298;2024-03-06T12:18:56;8.60;;;2.05;;
33826;SDS011;20128;45.582;5.298;2024-03-06T12:21:32;7.45;;;1.10;;
33826;SDS011;20128;45.582;5.298;2024-03-06T12:24:02;3.78;;;1.00;;
33826;SDS011;20128;45.582;5.298;2024-03-06T12:26:31;5.07;;;1.23;;
33826;SDS011;20128;45.582;5.298;2024-03-06T12:29:30;5.07;;;1.20;;
33826;SDS011;20128;45.582;5.298;2024-03-06T12:31:48;15.77;;;1.73;;
33826;SDS011;20128;45.582;5.298;2024-03-06T12:34:14;5.22;;;1.60;;
33826;SDS011;20128;45.582;5.298;2024-03-06T12:36:44;4.00;;;0.98;;
33826;SDS011;20128;45.582;5.298;2024-03-06T12:39:10;5.90;;;1.38;;
33826;SDS011;20128;45.582;5.298;2024-03-06T12:41:43;7.78;;;1.42;;
33826;SDS011;20128;45.582;5.298;2024-03-06T12:44:08;9.75;;;1.48;;
33826;SDS011;20128;45.582;5.298;2024-03-06T12:46:34;7.03;;;1.05;;
33826;SDS011;20128;45.582;5.298;2024-03-06T12:49:00;2.72;;;0.98;;
33826;SDS011;20128;45.582;5.298;2024-03-06T12:51:25;7.50;;;1.00;;
33826;SDS011;20128;45.582;5.298;2024-03-06T12:53:51;4.65;;;0.93;;
33826;SDS011;20128;45.582;5.298;2024-03-06T12:56:17;5.50;;;1.13;;
33826;SDS011;20128;45.582;5.298;2024-03-06T12:58:44;5.70;;;1.48;;
33826;SDS011;20128;45.582;5.298;2024-03-06T13:01:09;3.83;;;1.02;;
33826;SDS011;20128;45.582;5.298;2024-03-06T13:03:35;3.60;;;0.88;;
33826;SDS011;20128;45.582;5.298;2024-03-06T13:06:02;5.05;;;0.80;;
33826;SDS011;20128;45.582;5.298;2024-03-06T13:08:31;3.58;;;1.00;;
33826;SDS011;20128;45.582;5.298;2024-03-06T13:10:57;4.53;;;1.40;;
33826;SDS011;20128;45.582;5.298;2024-03-06T13:13:23;6.47;;;1.55;;
33826;SDS011;20128;45.582;5.298;2024-03-06T13:15:50;4.22;;;0.85;;
33826;SDS011;20128;45.582;5.298;2024-03-06T13:18:16;3.20;;;1.02;;
33826;SDS011;20128;45.582;5.298;2024-03-06T13:20:43;6.80;;;0.93;;
33826;SDS011;20128;45.582;5.298;2024-03-06T13:23:09;8.70;;;0.85;;
33826;SDS011;20128;45.582;5.298;2024-03-06T13:25:35;3.90;;;0.68;;
33826;SDS011;20128;45.582;5.298;2024-03-06T13:28:01;6.25;;;1.00;;
33826;SDS011;20128;45.582;5.298;2024-03-06T13:30:30;7.65;;;1.05;;
33826;SDS011;20128;45.582;5.298;2024-03-06T13:32:56;2.55;;;0.60;;
33826;SDS011;20128;45.582;5.298;2024-03-06T13:35:23;2.72;;;0.73;;
33826;SDS011;20128;45.582;5.298;2024-03-06T13:37:49;7.40;;;0.90;;
33826;SDS011;20128;45.582;5.298;2024-03-06T13:40:14;2.95;;;0.55;;
33826;SDS011;20128;45.582;5.298;2024-03-06T13:42:40;3.35;;;0.68;;
33826;SDS011;20128;45.582;5.298;2024-03-06T13:45:07;5.38;;;0.82;;
33826;SDS011;20128;45.582;5.298;2024-03-06T13:47:42;3.53;;;0.80;;
33826;SDS011;20128;45.582;5.298;2024-03-06T13:50:15;6.40;;;1.00;;
33826;SDS011;20128;45.582;5.298;2024-03-06T13:52:44;3.90;;;0.73;;
33826;SDS011;20128;45.582;5.298;2024-03-06T13:55:10;3.47;;;0.93;;
33826;SDS011;20128;45.582;5.298;2024-03-06T13:57:36;4.43;;;0.80;;
33826;SDS011;20128;45.582;5.298;2024-03-06T14:00:04;2.30;;;0.63;;
33826;SDS011;20128;45.582;5.298;2024-03-06T14:02:31;3.58;;;0.73;;
33826;SDS011;20128;45.582;5.298;2024-03-06T14:04:57;4.55;;;0.70;;
33826;SDS011;20128;45.582;5.298;2024-03-06T14:07:23;7.03;;;0.82;;
33826;SDS011;20128;45.582;5.298;2024-03-06T14:09:49;6.38;;;1.13;;
33826;SDS011;20128;45.582;5.298;2024-03-06T14:12:16;5.25;;;0.68;;
33826;SDS011;20128;45.582;5.298;2024-03-06T14:14:42;6.20;;;0.80;;
33826;SDS011;20128;45.582;5.298;2024-03-06T14:17:08;4.63;;;0.70;;
33826;SDS011;20128;45.582;5.298;2024-03-06T14:19:34;2.55;;;0.60;;
33826;SDS011;20128;45.582;5.298;2024-03-06T14:21:59;4.65;;;0.60;;
33826;SDS011;20128;45.582;5.298;2024-03-06T14:24:25;6.80;;;0.70;;
33826;SDS011;20128;45.582;5.298;2024-03-06T14:26:50;3.50;;;0.93;;
33826;SDS011;20128;45.582;5.298;2024-03-06T14:29:16;3.88;;;0.98;;
33826;SDS011;20128;45.582;5.298;2024-03-06T14:31:42;8.73;;;1.40;;
33826;SDS011;20128;45.582;5.298;2024-03-06T14:34:08;5.80;;;1.13;;
33826;SDS011;20128;45.582;5.298;2024-03-06T14:36:35;5.53;;;0.90;;
33826;SDS011;20128;45.582;5.298;2024-03-06T14:39:01;5.88;;;1.00;;
33826;SDS011;20128;45.582;5.298;2024-03-06T14:41:28;3.00;;;1.30;;
33826;SDS011;20128;45.582;5.298;2024-03-06T14:43:53;6.03;;;1.00;;
33826;SDS011;20128;45.582;5.298;2024-03-06T14:46:19;3.78;;;1.10;;
33826;SDS011;20128;45.582;5.298;2024-03-06T14:48:45;6.68;;;0.85;;
33826;SDS011;20128;45.582;5.298;2024-03-06T14:51:11;3.78;;;0.70;;
33826;SDS011;20128;45.582;5.298;2024-03-06T14:53:38;3.08;;;0.75;;
33826;SDS011;20128;45.582;5.298;2024-03-06T14:56:04;3.08;;;0.93;;
33826;SDS011;20128;45.582;5.298;2024-03-06T14:58:30;5.45;;;1.10;;
33826;SDS011;20128;45.582;5.298;2024-03-06T15:00:56;7.15;;;1.33;;